Time;durP1;ratioP1;P1;durP2;ratioP2;P2;SDS_P1;SDS_P2;PMS_P1;PMS_P2;Temp;Humidity;BMP_temperature;BMP_pressure;BME280_temperature;BME280_humidity;BME280_pressure;Samples;Min_cycle;Max_cycle;Signal;HPM_P1;HPM_P2
2022/01/27 00:04:37;;;;;;;65.87;31.30;;;;;;;;;;5029749;28;20779;-78
2022/01/27 00:07:03;;;;;;;51.70;27.50;;;;;;;;;;5025399;28;20368;-78
2022/01/27 00:10:00;;;;;;;57.60;32.50;;;;;;;;;;5022614;28;20459;-78
2022/01/27 00:12:26;;;;;;;57.03;29.50;;;;;;;;;;5020397;28;20443;-78
2022/01/27 00:15:07;;;;;;;57.50;27.40;;;;;;;;;;5015718;28;20991;-78
2022/01/27 00:17:38;;;;;;;51.03;29.70;;;;;;;;;;5015488;28;20446;-78
2022/01/27 00:20:04;;;;;;;61.03;30.37;;;;;;;;;;5015663;28;20420;-78
2022/01/27 00:22:30;;;;;;;51.40;27.67;;;;;;;;;;5021524;28;20410;-78
2022/01/27 00:24:56;;;;;;;55.53;27.63;;;;;;;;;;5019719;28;20426;-78
2022/01/27 00:27:22;;;;;;;53.20;29.70;;;;;;;;;;5014667;28;20416;-77
2022/01/27 00:29:48;;;;;;;53.43;28.30;;;;;;;;;;5014755;28;20434;-79
2022/01/27 00:32:14;;;;;;;61.10;33.30;;;;;;;;;;5019509;28;20467;-78
2022/01/27 00:34:40;;;;;;;55.53;29.00;;;;;;;;;;5020506;28;20423;-78
2022/01/27 00:37:06;;;;;;;50.53;28.40;;;;;;;;;;5019836;28;20399;-78
2022/01/27 00:39:32;;;;;;;62.10;27.97;;;;;;;;;;5016605;28;20983;-77
2022/01/27 00:41:59;;;;;;;58.53;29.93;;;;;;;;;;5015511;28;20419;-77
2022/01/27 00:44:25;;;;;;;50.93;28.00;;;;;;;;;;5014632;28;20496;-78
2022/01/27 00:46:51;;;;;;;56.43;31.17;;;;;;;;;;5018218;28;20416;-78
2022/01/27 00:49:17;;;;;;;57.50;29.10;;;;;;;;;;5022825;28;20830;-78
2022/01/27 00:51:45;;;;;;;55.23;30.60;;;;;;;;;;5018357;28;20458;-77
2022/01/27 00:54:20;;;;;;;51.93;27.33;;;;;;;;;;5012587;28;20501;-78
2022/01/27 00:57:02;;;;;;;58.17;28.40;;;;;;;;;;5014197;28;20380;-78
2022/01/27 01:04:47;;;;;;;58.13;28.90;;;;;;;;;;5014285;28;20387;-78
2022/01/27 01:07:14;;;;;;;47.30;28.40;;;;;;;;;;5014361;28;20395;-78
2022/01/27 01:15:33;;;;;;;53.63;28.17;;;;;;;;;;4983198;28;20503;-77
2022/01/27 01:20:34;;;;;;;55.40;31.53;;;;;;;;;;5019902;28;20463;-78
2022/01/27 01:32:11;;;;;;;52.13;28.70;;;;;;;;;;5017590;28;20388;-76
2022/01/27 01:34:14;;;;;;;56.47;30.40;;;;;;;;;;5011732;28;20414;-77
2022/01/27 01:36:49;;;;;;;56.73;29.37;;;;;;;;;;5015643;28;20403;-77
2022/01/27 01:39:15;;;;;;;60.47;29.80;;;;;;;;;;5017822;28;20473;-77
2022/01/27 01:41:42;;;;;;;59.33;28.60;;;;;;;;;;5017786;28;20399;-78
2022/01/27 01:44:08;;;;;;;60.07;30.03;;;;;;;;;;5018233;28;20764;-77
2022/01/27 01:46:34;;;;;;;62.30;28.97;;;;;;;;;;5017813;28;20403;-77
2022/01/27 01:49:00;;;;;;;51.77;29.90;;;;;;;;;;5017627;28;20451;-79
2022/01/27 01:51:28;;;;;;;52.73;31.23;;;;;;;;;;5018051;28;20951;-79
2022/01/27 01:53:54;;;;;;;53.07;29.33;;;;;;;;;;5017671;28;20474;-77
2022/01/27 01:56:20;;;;;;;59.77;35.00;;;;;;;;;;5017168;28;20887;-77
2022/01/27 01:58:46;;;;;;;57.50;29.70;;;;;;;;;;5017997;28;20427;-77
2022/01/27 02:01:13;;;;;;;60.93;30.67;;;;;;;;;;5017841;28;20833;-77
2022/01/27 02:03:39;;;;;;;47.03;27.60;;;;;;;;;;5019757;28;20395;-78
2022/01/27 02:06:06;;;;;;;51.50;27.10;;;;;;;;;;5016185;28;20407;-77
2022/01/27 02:08:46;;;;;;;53.40;28.90;;;;;;;;;;5018138;28;20432;-77
2022/01/27 02:19:27;;;;;;;59.40;29.77;;;;;;;;;;5017361;28;20946;-78
2022/01/27 02:21:55;;;;;;;50.10;28.53;;;;;;;;;;5017200;28;20407;-79
2022/01/27 02:24:23;;;;;;;56.93;29.20;;;;;;;;;;5017454;28;20403;-77
2022/01/27 02:26:49;;;;;;;65.73;31.20;;;;;;;;;;5017067;28;20396;-77
2022/01/27 02:29:16;;;;;;;56.87;31.37;;;;;;;;;;5015781;28;20424;-78
2022/01/27 02:31:42;;;;;;;52.40;28.07;;;;;;;;;;5016584;28;20451;-78
2022/01/27 02:34:08;;;;;;;56.47;32.00;;;;;;;;;;5008539;28;20466;-79
2022/01/27 02:36:35;;;;;;;56.60;30.17;;;;;;;;;;5001338;28;20423;-79
2022/01/27 02:39:03;;;;;;;65.50;31.00;;;;;;;;;;5002683;28;20412;-78
2022/01/27 02:41:31;;;;;;;60.50;32.17;;;;;;;;;;5021898;28;20896;-78
2022/01/27 02:43:57;;;;;;;62.73;31.17;;;;;;;;;;5039304;28;20440;-77
2022/01/27 02:46:30;;;;;;;64.00;30.73;;;;;;;;;;5022385;28;20439;-77
2022/01/27 02:48:56;;;;;;;57.93;31.00;;;;;;;;;;5023366;28;20458;-77
2022/01/27 02:51:22;;;;;;;57.87;32.17;;;;;;;;;;5017553;28;20498;-78
2022/01/27 02:53:48;;;;;;;65.40;34.40;;;;;;;;;;5019146;28;20750;-77
2022/01/27 02:56:14;;;;;;;63.97;31.70;;;;;;;;;;5022405;28;20787;-78
2022/01/27 02:58:41;;;;;;;56.90;31.17;;;;;;;;;;5017352;28;20457;-78
2022/01/27 03:01:07;;;;;;;61.40;30.80;;;;;;;;;;5015337;28;20811;-78
2022/01/27 03:03:33;;;;;;;60.40;32.53;;;;;;;;;;5016134;28;20412;-78
2022/01/27 03:05:59;;;;;;;67.17;34.30;;;;;;;;;;5015962;28;20443;-77
2022/01/27 03:08:25;;;;;;;65.00;30.53;;;;;;;;;;5015827;28;20396;-78
2022/01/27 03:10:59;;;;;;;66.13;32.87;;;;;;;;;;5018845;28;20554;-77
2022/01/27 03:13:28;;;;;;;70.30;34.27;;;;;;;;;;5014900;28;20451;-77
2022/01/27 03:15:54;;;;;;;68.20;32.13;;;;;;;;;;5017380;28;20411;-77
2022/01/27 03:18:20;;;;;;;63.23;33.80;;;;;;;;;;5015714;28;20550;-77
2022/01/27 03:20:46;;;;;;;61.57;31.60;;;;;;;;;;5015829;28;20396;-77
2022/01/27 03:23:12;;;;;;;56.53;31.33;;;;;;;;;;5015588;28;20404;-77
2022/01/27 03:25:38;;;;;;;57.57;29.97;;;;;;;;;;5015173;28;20451;-78
2022/01/27 03:28:08;;;;;;;60.30;33.17;;;;;;;;;;5013955;28;20454;-77
2022/01/27 03:30:34;;;;;;;59.30;31.70;;;;;;;;;;5015652;28;20475;-77
2022/01/27 03:33:00;;;;;;;58.97;30.63;;;;;;;;;;5016190;28;20813;-78
2022/01/27 03:35:26;;;;;;;55.67;30.90;;;;;;;;;;5014888;28;20432;-77
2022/01/27 03:37:52;;;;;;;51.63;29.13;;;;;;;;;;5016086;28;20403;-78
2022/01/27 03:40:18;;;;;;;60.97;30.53;;;;;;;;;;5015041;28;20415;-77
2022/01/27 03:42:50;;;;;;;60.13;31.77;;;;;;;;;;5014712;28;20423;-79
2022/01/27 03:45:17;;;;;;;59.73;31.23;;;;;;;;;;5026612;28;20753;-78
2022/01/27 03:47:43;;;;;;;53.73;32.07;;;;;;;;;;5034911;28;20415;-78
2022/01/27 03:50:09;;;;;;;58.17;31.20;;;;;;;;;;5024086;28;20447;-78
2022/01/27 03:52:35;;;;;;;60.17;30.90;;;;;;;;;;5015688;28;20933;-77
2022/01/27 03:55:01;;;;;;;67.17;31.47;;;;;;;;;;5015459;28;20435;-77
2022/01/27 03:57:27;;;;;;;58.67;32.60;;;;;;;;;;5015157;28;20907;-79
2022/01/27 03:59:53;;;;;;;67.50;32.97;;;;;;;;;;5016646;28;20424;-78
2022/01/27 04:02:19;;;;;;;58.70;31.37;;;;;;;;;;5017844;28;20412;-79
2022/01/27 04:04:45;;;;;;;67.83;32.10;;;;;;;;;;5018342;28;20434;-79
2022/01/27 04:07:11;;;;;;;66.93;32.33;;;;;;;;;;5013880;28;20415;-79
2022/01/27 04:09:37;;;;;;;53.20;30.23;;;;;;;;;;5000758;28;20420;-78
2022/01/27 04:12:04;;;;;;;65.47;33.53;;;;;;;;;;5001123;28;20793;-79
2022/01/27 04:14:30;;;;;;;61.60;30.20;;;;;;;;;;5000377;28;20412;-79
2022/01/27 04:16:56;;;;;;;59.80;32.30;;;;;;;;;;5001525;28;20512;-79
2022/01/27 04:19:22;;;;;;;52.00;28.73;;;;;;;;;;5006735;28;20424;-79
2022/01/27 04:21:48;;;;;;;55.10;29.30;;;;;;;;;;5001087;28;20480;-79
2022/01/27 04:24:17;;;;;;;53.33;27.17;;;;;;;;;;5008483;28;20411;-79
2022/01/27 04:26:47;;;;;;;64.03;29.67;;;;;;;;;;5002278;28;20787;-79
2022/01/27 04:29:15;;;;;;;49.30;28.27;;;;;;;;;;5001333;28;20499;-79
2022/01/27 04:31:44;;;;;;;54.63;29.23;;;;;;;;;;4999355;28;20456;-79
2022/01/27 04:34:11;;;;;;;56.50;26.70;;;;;;;;;;5001085;28;20401;-79
2022/01/27 04:36:39;;;;;;;53.20;28.27;;;;;;;;;;4999074;28;20396;-78
2022/01/27 04:47:12;;;;;;;52.60;27.33;;;;;;;;;;4992376;28;20428;-78
2022/01/27 04:49:38;;;;;;;49.70;27.70;;;;;;;;;;5014949;28;20529;-79
2022/01/27 04:52:05;;;;;;;46.80;25.70;;;;;;;;;;5020424;28;20970;-79
2022/01/27 04:54:41;;;;;;;48.80;27.17;;;;;;;;;;5019719;28;20410;-78
2022/01/27 04:57:08;;;;;;;55.33;28.53;;;;;;;;;;5014590;28;20450;-77
2022/01/27 04:59:40;;;;;;;51.83;28.10;;;;;;;;;;5013877;28;20435;-78
2022/01/27 05:02:14;;;;;;;47.30;28.20;;;;;;;;;;5014821;28;20812;-78
2022/01/27 05:04:43;;;;;;;58.40;28.10;;;;;;;;;;5013816;28;20787;-78
2022/01/27 05:07:09;;;;;;;45.80;27.40;;;;;;;;;;5014841;28;20457;-77
2022/01/27 05:09:36;;;;;;;59.20;31.80;;;;;;;;;;5014700;28;20432;-76
2022/01/27 05:12:19;;;;;;;43.40;26.13;;;;;;;;;;5013970;28;20447;-79
2022/01/27 05:14:46;;;;;;;53.93;28.87;;;;;;;;;;5013985;28;20384;-77
2022/01/27 05:17:12;;;;;;;48.07;27.60;;;;;;;;;;5013436;28;20502;-77
2022/01/27 05:19:38;;;;;;;50.67;26.63;;;;;;;;;;5013596;28;20516;-77
2022/01/27 05:22:04;;;;;;;47.43;26.10;;;;;;;;;;5014022;28;20811;-77
2022/01/27 05:24:30;;;;;;;44.50;25.40;;;;;;;;;;5013606;28;20903;-77
2022/01/27 05:26:56;;;;;;;57.30;29.23;;;;;;;;;;5013498;28;20403;-77
2022/01/27 05:29:22;;;;;;;56.00;28.30;;;;;;;;;;5016201;28;20443;-77
2022/01/27 05:31:49;;;;;;;49.00;28.47;;;;;;;;;;5016003;28;20451;-77
2022/01/27 05:34:15;;;;;;;51.50;27.50;;;;;;;;;;5014594;28;20906;-78
2022/01/27 05:36:41;;;;;;;51.23;28.30;;;;;;;;;;5013697;28;20480;-77
2022/01/27 05:39:07;;;;;;;51.43;27.17;;;;;;;;;;5013478;28;20419;-77
2022/01/27 05:41:33;;;;;;;52.30;28.77;;;;;;;;;;5026362;28;20441;-77
2022/01/27 05:43:59;;;;;;;53.90;27.80;;;;;;;;;;5033075;28;20407;-78
2022/01/27 05:46:25;;;;;;;50.23;26.50;;;;;;;;;;5033387;28;20915;-79
2022/01/27 05:48:51;;;;;;;45.90;26.27;;;;;;;;;;5049720;23;20537;-78
2022/01/27 05:51:18;;;;;;;49.87;27.43;;;;;;;;;;5053398;28;20471;-80
2022/01/27 05:53:44;;;;;;;48.90;27.53;;;;;;;;;;5056698;28;20442;-80
2022/01/27 05:56:10;;;;;;;51.93;28.53;;;;;;;;;;5056822;28;20773;-80
2022/01/27 05:58:36;;;;;;;48.77;27.53;;;;;;;;;;5056513;28;20592;-80
2022/01/27 06:01:03;;;;;;;49.80;28.23;;;;;;;;;;5039301;28;20785;-80
2022/01/27 06:03:29;;;;;;;51.33;28.30;;;;;;;;;;5040727;28;20494;-80
2022/01/27 06:05:55;;;;;;;51.43;28.20;;;;;;;;;;5038906;28;20407;-80
2022/01/27 06:08:21;;;;;;;43.50;25.70;;;;;;;;;;5039269;28;20402;-80
2022/01/27 06:10:47;;;;;;;45.77;27.63;;;;;;;;;;5040182;28;20419;-80
2022/01/27 06:13:13;;;;;;;43.97;23.90;;;;;;;;;;5040386;28;20497;-80
2022/01/27 06:15:39;;;;;;;47.17;28.30;;;;;;;;;;5041392;28;20411;-80
2022/01/27 06:18:05;;;;;;;45.40;24.40;;;;;;;;;;5039805;28;20414;-80
2022/01/27 06:20:32;;;;;;;42.07;25.70;;;;;;;;;;5040409;28;20424;-80
2022/01/27 06:22:58;;;;;;;42.00;25.53;;;;;;;;;;5040963;28;20425;-80
2022/01/27 06:25:25;;;;;;;39.97;24.10;;;;;;;;;;5039452;28;20443;-80
2022/01/27 06:27:51;;;;;;;46.80;24.87;;;;;;;;;;5040914;28;20407;-79
2022/01/27 06:30:17;;;;;;;43.90;26.13;;;;;;;;;;5040854;28;20491;-80
2022/01/27 06:32:43;;;;;;;46.30;24.73;;;;;;;;;;5039711;28;20450;-79
2022/01/27 06:35:09;;;;;;;41.40;23.63;;;;;;;;;;5039832;28;20399;-80
2022/01/27 06:37:36;;;;;;;45.20;24.90;;;;;;;;;;5039488;28;20407;-80
2022/01/27 06:40:03;;;;;;;43.13;24.27;;;;;;;;;;5038312;28;20509;-80
2022/01/27 06:42:29;;;;;;;40.10;24.20;;;;;;;;;;5038707;28;20419;-80
2022/01/27 06:44:55;;;;;;;43.70;25.63;;;;;;;;;;5040145;28;20407;-79
2022/01/27 06:47:21;;;;;;;43.00;24.93;;;;;;;;;;5041373;28;20486;-79
2022/01/27 06:49:47;;;;;;;42.53;23.23;;;;;;;;;;5039443;28;20478;-79
2022/01/27 06:52:13;;;;;;;43.43;23.80;;;;;;;;;;5038833;28;20470;-80
2022/01/27 06:54:40;;;;;;;44.73;25.83;;;;;;;;;;5038219;28;20407;-80
2022/01/27 06:57:06;;;;;;;46.30;28.07;;;;;;;;;;5038858;28;20440;-79
2022/01/27 06:59:34;;;;;;;45.63;25.77;;;;;;;;;;5038417;28;20423;-80
2022/01/27 07:02:00;;;;;;;40.20;24.47;;;;;;;;;;5038853;28;20411;-80
2022/01/27 07:04:26;;;;;;;44.90;26.13;;;;;;;;;;5037431;28;20965;-80
2022/01/27 07:06:53;;;;;;;38.53;22.97;;;;;;;;;;5038765;28;20406;-80
2022/01/27 07:09:18;;;;;;;41.07;23.13;;;0.30;99.90;;;;;;5038773;28;20438;-78
2022/01/27 07:11:44;;;;;;;38.53;25.00;;;;;;;;;;5038765;28;20454;-79
2022/01/27 07:14:11;;;;;;;42.20;23.50;;;-1.20;99.90;;;;;;5038327;28;20171;-79
2022/01/27 07:16:38;;;;;;;40.73;24.30;;;-1.20;99.90;;;;;;5036981;28;20421;-79
2022/01/27 07:19:04;;;;;;;36.20;22.30;;;;;;;;;;5037897;28;20427;-78
2022/01/27 07:21:30;;;;;;;38.83;22.90;;;;;;;;;;5036573;28;20911;-78
2022/01/27 07:23:56;;;;;;;41.97;22.83;;;;;;;;;;5036421;28;20919;-79
2022/01/27 07:26:24;;;;;;;40.20;22.87;;;;;;;;;;5038730;28;20494;-79
2022/01/27 07:28:51;;;;;;;39.03;21.47;;;;;;;;;;5038525;28;20506;-78
2022/01/27 07:31:17;;;;;;;38.70;22.47;;;;;;;;;;5038211;28;20499;-80
2022/01/27 07:33:43;;;;;;;39.03;21.17;;;;;;;;;;5036312;28;20456;-79
2022/01/27 07:36:09;;;;;;;33.10;20.47;;;;;;;;;;5038740;28;20813;-79
2022/01/27 07:38:35;;;;;;;37.87;22.03;;;;;;;;;;5039584;28;20407;-78
2022/01/27 07:41:01;;;;;;;36.00;21.90;;;;;;;;;;5037862;28;20400;-79
2022/01/27 07:43:28;;;;;;;40.50;22.37;;;;;;;;;;5036837;28;20849;-79
2022/01/27 07:45:54;;;;;;;39.97;23.70;;;;;;;;;;5038248;28;20429;-79
2022/01/27 07:48:20;;;;;;;38.17;22.57;;;;;;;;;;5039249;28;20414;-80
2022/01/27 07:50:46;;;;;;;40.57;23.37;;;;;;;;;;5037456;28;20462;-80
2022/01/27 07:53:12;;;;;;;42.10;22.33;;;;;;;;;;5032664;28;20546;-80
2022/01/27 07:55:38;;;;;;;37.00;22.33;;;;;;;;;;5029480;28;20458;-79
2022/01/27 07:58:04;;;;;;;37.60;21.83;;;;;;;;;;5032176;28;20916;-79
2022/01/27 08:00:30;;;;;;;37.27;20.63;;;;;;;;;;5021839;28;21036;-78
2022/01/27 08:02:56;;;;;;;36.63;21.93;;;;;;;;;;5029826;28;20485;-80
2022/01/27 08:05:22;;;;;;;31.17;19.23;;;;;;;;;;5025801;28;20911;-80
2022/01/27 08:07:48;;;;;;;26.50;17.87;;;;;;;;;;5026707;28;20529;-80
2022/01/27 08:10:14;;;;;;;32.57;18.70;;;;;;;;;;5033525;28;20437;-80
2022/01/27 08:12:44;;;;;;;26.23;16.33;;;;;;;;;;5021544;28;20461;-79
2022/01/27 08:15:15;;;;;;;28.57;18.40;;;;;;;;;;5019296;28;20791;-80
2022/01/27 08:17:41;;;;;;;29.13;18.40;;;;;;;;;;5023820;28;20435;-79
2022/01/27 08:20:07;;;;;;;27.03;17.53;;;;;;;;;;5025116;28;20471;-80
2022/01/27 08:22:37;;;;;;;24.00;16.30;;;;;;;;;;5028922;28;20461;-80
2022/01/27 08:25:03;;;;;;;25.73;16.50;;;;;;;;;;5029575;28;20430;-79
2022/01/27 08:27:31;;;;;;;23.70;15.50;;;;;;;;;;5028516;28;20925;-79
2022/01/27 08:30:03;;;;;;;24.13;14.43;;;;;;;;;;5027961;28;20434;-79
2022/01/27 08:32:40;;;;;;;18.93;12.83;;;;;;;;;;5020576;28;20476;-79
2022/01/27 08:35:06;;;;;;;20.67;12.53;;;;;;;;;;5019996;28;20456;-80
2022/01/27 08:37:32;;;;;;;18.00;12.10;;;;;;;;;;5036598;28;20418;-80
2022/01/27 08:39:58;;;;;;;17.10;11.40;;;;;;;;;;5036660;28;20503;-78
2022/01/27 08:42:24;;;;;;;14.97;10.67;;;;;;;;;;5029149;28;20569;-80
2022/01/27 08:44:50;;;;;;;16.93;10.40;;;;;;;;;;5024824;28;20486;-80
2022/01/27 08:47:18;;;;;;;13.93;10.03;;;;;;;;;;5025098;28;20521;-80
2022/01/27 08:49:46;;;;;;;17.83;10.00;;;;;;;;;;5031049;28;20477;-80
2022/01/27 08:52:12;;;;;;;16.13;10.00;;;;;;;;;;5027662;28;20525;-80
2022/01/27 08:54:38;;;;;;;16.80;10.97;;;;;;;;;;5035645;28;20425;-79
2022/01/27 08:57:05;;;;;;;15.00;9.77;;;;;;;;;;5034824;28;20605;-79
2022/01/27 08:59:31;;;;;;;15.33;9.33;;;;;;;;;;5023362;28;20457;-78
2022/01/27 09:01:57;;;;;;;14.10;8.50;;;;;;;;;;5023347;28;20446;-78
2022/01/27 09:04:23;;;;;;;14.33;9.20;;;;;;;;;;5026007;28;20502;-78
2022/01/27 09:06:50;;;;;;;15.80;9.83;;;;;;;;;;5022572;28;20453;-77
2022/01/27 09:09:16;;;;;;;14.33;8.87;;;;;;;;;;5018343;28;20946;-77
2022/01/27 09:11:46;;;;;;;15.30;9.40;;;;;;;;;;5020775;28;20459;-77
2022/01/27 09:14:14;;;;;;;13.93;8.80;;;;;;;;;;5023112;28;20429;-77
2022/01/27 09:16:40;;;;;;;14.50;8.20;;;;;;;;;;5023682;28;20436;-78
2022/01/27 09:19:07;;;;;;;19.00;8.47;;;;;;;;;;5027735;28;20649;-77
2022/01/27 09:21:43;;;;;;;14.60;7.60;;;;;;;;;;5019965;28;20452;-78
2022/01/27 09:24:14;;;;;;;11.03;7.30;;;;;;;;;;5022600;28;20419;-76
2022/01/27 09:26:50;;;;;;;17.00;7.50;;;;;;;;;;5020782;28;20452;-77
2022/01/27 09:29:17;;;;;;;13.90;7.20;;;;;;;;;;5018535;28;20446;-77
2022/01/27 09:31:44;;;;;;;14.23;6.57;;;;;;;;;;5020478;28;20831;-77
2022/01/27 09:34:10;;;;;;;13.07;6.50;;;;;;;;;;5032063;28;20415;-77
2022/01/27 09:36:36;;;;;;;11.00;7.17;;;;;;;;;;5033116;28;20431;-78
2022/01/27 09:39:03;;;;;;;9.07;5.90;;;;;;;;;;5023307;28;20471;-77
2022/01/27 09:41:31;;;;;;;10.70;7.03;;;;;;;;;;5020430;28;20419;-77
2022/01/27 09:43:58;;;;;;;15.63;6.07;;;;;;;;;;5022384;28;20433;-77
2022/01/27 09:46:26;;;;;;;17.43;6.73;;;;;;;;;;5026512;28;20466;-77
2022/01/27 09:48:52;;;;;;;12.83;6.10;;;;;;;;;;5022962;28;20847;-77
2022/01/27 09:53:46;;;;;;;7.83;5.50;;;;;;;;;;5026240;28;20484;-78
2022/01/27 09:56:12;;;;;;;11.10;5.57;;;;;;;;;;5019515;28;20447;-77
2022/01/27 09:58:39;;;;;;;8.93;5.00;;;;;;;;;;5031755;28;20775;-78
2022/01/27 10:01:05;;;;;;;11.20;5.20;;;;;;;;;;5028118;28;20430;-77
2022/01/27 10:03:31;;;;;;;10.57;3.83;;;;;;;;;;5028836;28;20938;-78
2022/01/27 10:06:15;;;;;;;9.80;4.00;;;;;;;;;;5023521;28;20562;-77
2022/01/27 10:08:42;;;;;;;8.10;3.87;;;;;;;;;;5025915;28;20504;-78
2022/01/27 10:11:34;;;;;;;6.13;3.33;;;;;;;;;;5025687;28;20423;-77
2022/01/27 10:14:15;;;;;;;9.07;4.40;;;;;;;;;;5029048;28;20424;-78
2022/01/27 10:16:43;;;;;;;8.73;3.90;;;;;;;;;;5028873;28;20403;-77
2022/01/27 10:19:11;;;;;;;4.40;3.10;;;;;;;;;;5029648;28;20431;-77
2022/01/27 10:21:37;;;;;;;7.10;3.60;;;;;;;;;;5019368;28;20423;-78
2022/01/27 10:24:15;;;;;;;7.70;2.80;;;;;;;;;;5026910;28;20907;-77
2022/01/27 10:26:47;;;;;;;7.17;2.87;;;;;;;;;;5026387;28;20784;-78
2022/01/27 10:29:17;;;;;;;6.03;3.57;;;;;;;;;;5022626;28;20458;-78
2022/01/27 10:31:44;;;;;;;17.70;3.50;;;;;;;;;;5024565;28;20829;-78
2022/01/27 10:34:10;;;;;;;3.90;2.77;;;;;;;;;;5020393;28;21168;-78
2022/01/27 10:36:39;;;;;;;4.23;2.67;;;;;;;;;;5018277;28;20516;-78
2022/01/27 10:39:08;;;;;;;9.68;3.00;;;;;;;;;;5022429;28;20910;-78
2022/01/27 10:41:36;;;;;;;9.20;3.30;;;;;;;;;;5018656;28;20660;-78
2022/01/27 10:44:14;;;;;;;19.23;3.00;;;;;;;;;;5029127;28;20963;-78
2022/01/27 10:46:49;;;;;;;7.63;3.23;;;;;;;;;;5027748;28;20404;-79
2022/01/27 10:49:26;;;;;;;6.37;3.00;;;;;;;;;;5027825;28;20446;-79
2022/01/27 10:51:54;;;;;;;3.73;2.80;;;;;;;;;;5027893;28;20446;-79
2022/01/27 10:54:37;;;;;;;3.47;2.80;;;;;;;;;;5037721;28;20549;-78
2022/01/27 10:57:06;;;;;;;8.17;3.27;;;;;;;;;;5026668;28;20495;-80
2022/01/27 10:59:33;;;;;;;6.40;2.83;;;;;;;;;;5025287;28;20523;-79
2022/01/27 11:02:04;;;;;;;5.80;2.75;;;;;;;;;;5024917;28;20419;-78
2022/01/27 11:04:35;;;;;;;6.80;2.70;;;;;;;;;;5014320;28;20176;-77
2022/01/27 11:07:03;;;;;;;6.47;3.13;;;;;;;;;;5025120;28;20434;-78
2022/01/27 11:09:34;;;;;;;4.63;2.60;;;;;;;;;;5024730;28;20474;-77
2022/01/27 11:12:03;;;;;;;5.00;2.93;;;;;;;;;;5028409;28;21002;-77
2022/01/27 11:14:29;;;;;;;4.70;2.70;;;;;;;;;;5020575;28;20423;-77
2022/01/27 11:16:57;;;;;;;11.77;2.93;;;;;;;;;;5020893;28;21053;-77
2022/01/27 11:27:40;;;;;;;4.90;2.80;;;;;;;;;;5031076;28;20966;-77
2022/01/27 11:30:15;;;;;;;8.40;2.80;;;;;;;;;;5019866;28;20435;-79
2022/01/27 11:36:26;;;;;;;7.33;3.23;;;;;;;;;;5022510;28;20450;-78
2022/01/27 11:39:29;;;;;;;9.83;2.47;;;;;;;;;;5017198;28;20436;-79
2022/01/27 11:42:18;;;;;;;3.70;1.90;;;;;;;;;;5023176;28;20428;-77
2022/01/27 11:44:49;;;;;;;7.90;2.93;;;;;;;;;;5014502;28;20455;-78
2022/01/27 11:47:18;;;;;;;5.57;2.67;;;;;;;;;;5031992;28;20458;-79
2022/01/27 11:52:30;;;;;;;3.40;3.00;;;;;;;;;;5020986;28;20447;-79
2022/01/27 11:55:19;;;;;;;5.47;3.10;;;;;;;;;;5027921;28;20395;-79
2022/01/27 11:57:46;;;;;;;13.13;3.70;;;;;;;;;;5031939;28;20890;-80
2022/01/27 12:00:16;;;;;;;4.60;2.63;;;;;;;;;;5030498;28;20471;-79
2022/01/27 12:02:57;;;;;;;15.50;3.10;;;;;;;;;;5032142;28;20423;-79
2022/01/27 12:05:30;;;;;;;9.97;3.40;;;;;;;;;;5019308;28;20566;-79
2022/01/27 12:08:17;;;;;;;9.00;3.17;;;;;;;;;;5026808;28;20427;-78
2022/01/27 12:10:59;;;;;;;4.47;3.33;;;;;;;;;;5021033;28;20934;-79
2022/01/27 12:13:26;;;;;;;4.77;3.20;;;;;;;;;;5021690;28;20451;-79
2022/01/27 12:16:12;;;;;;;5.50;3.67;;;;;;;;;;5028101;28;20517;-80
2022/01/27 12:18:38;;;;;;;6.60;2.80;;;;;;;;;;5017328;28;20569;-78
2022/01/27 12:21:23;;;;;;;9.60;3.50;;;;;;;;;;5021417;28;20579;-80
2022/01/27 12:24:08;;;;;;;9.83;3.83;;;;;;;;;;5021206;28;20445;-79
2022/01/27 12:26:51;;;;;;;5.17;3.33;;;;;;;;;;5020735;28;20487;-78
2022/01/27 12:29:23;;;;;;;15.50;3.80;;;;;;;;;;5020425;28;20827;-80
2022/01/27 12:31:50;;;;;;;8.00;3.17;;;;;;;;;;5023661;28;20509;-79
2022/01/27 12:34:16;;;;;;;6.37;3.60;;;;;;;;;;5025844;28;20420;-80
2022/01/27 12:36:58;;;;;;;5.43;3.63;;;;;;;;;;5027743;28;20596;-80
2022/01/27 12:39:25;;;;;;;5.87;4.07;;;;;;;;;;5019635;28;20470;-80
2022/01/27 12:41:53;;;;;;;11.77;3.77;;;;;;;;;;5019003;28;20466;-80
2022/01/27 12:44:20;;;;;;;6.33;3.27;;;;;;;;;;5033119;28;20476;-80
2022/01/27 12:47:01;;;;;;;6.30;3.77;;;;;;;;;;5028968;28;20426;-80
2022/01/27 12:49:43;;;;;;;5.33;3.80;;;;;;;;;;5031336;28;20443;-80
2022/01/27 12:52:11;;;;;;;7.10;4.60;;;;;;;;;;5021591;28;20460;-80
2022/01/27 12:54:41;;;;;;;8.97;4.53;;;;;;;;;;5031253;28;20940;-79
2022/01/27 12:57:09;;;;;;;6.10;4.07;;;;;;;;;;5021201;28;20423;-80
2022/01/27 12:59:41;;;;;;;7.50;4.20;;;;;;;;;;5019876;28;20461;-80
2022/01/27 13:02:08;;;;;;;5.47;4.03;;;;;;;;;;5016967;28;20576;-80
2022/01/27 13:04:35;;;;;;;7.40;5.63;;;;;;;;;;5023654;28;20442;-80
2022/01/27 13:07:01;;;;;;;10.50;6.67;;;;;;;;;;5028328;28;20414;-80
2022/01/27 13:09:29;;;;;;;9.73;7.03;;;;;;;;;;5024279;28;20437;-80
2022/01/27 13:11:56;;;;;;;13.40;7.80;;;;;;;;;;5035411;28;20461;-79
2022/01/27 13:14:23;;;;;;;13.50;7.37;;;;;;;;;;5023733;28;20442;-80
2022/01/27 13:16:58;;;;;;;20.73;9.20;;;;;;;;;;5029125;28;20428;-78
2022/01/27 13:19:49;;;;;;;12.73;8.77;;;;;;;;;;5035583;28;20499;-79
2022/01/27 13:22:24;;;;;;;15.10;8.40;;;;;;;;;;5022669;28;20432;-79
2022/01/27 13:24:51;;;;;;;15.63;9.73;;;;;;;;;;5028862;28;20415;-78
2022/01/27 13:27:17;;;;;;;13.60;8.07;;;;;;;;;;5033354;28;20508;-78
2022/01/27 13:29:47;;;;;;;16.73;10.10;;;;;;;;;;5025360;28;20455;-79
2022/01/27 13:32:14;;;;;;;12.90;8.17;;;;;;;;;;5025597;28;21402;-79
2022/01/27 13:34:41;;;;;;;12.70;9.20;;;;;;;;;;5027269;28;20423;-79
2022/01/27 13:37:07;;;;;;;13.57;8.87;;;;;;;;;;5026403;28;20520;-79
2022/01/27 13:42:13;;;;;;;19.70;10.43;;;;;;;;;;5020044;28;20418;-78
2022/01/27 13:45:15;;;;;;;13.77;9.43;;;;;;;;;;5021690;28;20938;-79
2022/01/27 13:47:41;;;;;;;15.33;9.00;;;;;;;;;;4941399;29;20890;-79
2022/01/27 13:50:11;;;;;;;16.20;9.20;;;;;;;;;;5014033;28;20485;-79
2022/01/27 13:52:42;;;;;;;18.53;9.03;;;;;;;;;;5029206;28;20438;-80
2022/01/27 13:55:12;;;;;;;14.07;8.00;;;;;;;;;;5033000;28;20426;-78
2022/01/27 13:57:51;;;;;;;17.30;10.87;;;;;;;;;;5033690;28;20452;-78
2022/01/27 14:00:21;;;;;;;15.43;9.73;;;;;;;;;;5031247;28;20444;-79
2022/01/27 14:02:50;;;;;;;16.93;9.43;;;;;;;;;;5024420;28;20424;-79
2022/01/27 14:05:17;;;;;;;14.90;9.57;;;;;;;;;;5026249;28;20424;-80
2022/01/27 14:07:53;;;;;;;16.97;10.70;;;;;;;;;;5030440;28;20431;-80
2022/01/27 14:10:26;;;;;;;16.67;10.70;;;;;;;;;;5024441;28;20557;-80
2022/01/27 14:13:00;;;;;;;16.70;11.93;;;;;;;;;;5028435;28;20454;-79
2022/01/27 14:15:48;;;;;;;17.63;10.67;;;;;;;;;;5025460;28;20426;-78
2022/01/27 14:18:14;;;;;;;14.40;11.50;;;;;;;;;;5035119;28;20423;-78
2022/01/27 14:21:09;;;;;;;20.43;10.70;;;;;;;;;;5040503;28;20466;-80
2022/01/27 14:23:56;;;;;;;27.63;9.70;;;;;;;;;;5017652;28;20431;-80
2022/01/27 14:28:56;;;;;;;17.20;10.53;;;;;;;;;;5024584;28;20414;-80
2022/01/27 14:31:22;;;;;;;17.90;10.80;;;;;;;;;;5025237;28;20419;-80
2022/01/27 14:33:48;;;;;;;20.40;11.50;;;;;;;;;;5023739;28;22162;-80
2022/01/27 14:36:14;;;;;;;20.00;10.67;;;;;;;;;;5028527;28;20411;-81
2022/01/27 14:38:41;;;;;;;23.63;10.80;;;;;;;;;;5027382;28;20937;-80
2022/01/27 14:41:08;;;;;;;22.47;10.90;;;;;;;;;;5026743;28;20507;-80
2022/01/27 14:43:37;;;;;;;17.97;11.20;;;;;;;;;;5025026;28;20524;-79
2022/01/27 14:46:03;;;;;;;17.07;11.50;;;;;;;;;;5023339;28;20441;-79
2022/01/27 14:48:32;;;;;;;18.77;11.80;;;;;;;;;;5025304;28;20793;-80
2022/01/27 14:50:59;;;;;;;20.60;11.30;;;;;;;;;;5026323;28;20479;-79
2022/01/27 14:53:25;;;;;;;18.70;11.53;;;;;;;;;;5030706;28;20465;-79
2022/01/27 14:55:51;;;;;;;17.10;11.03;;;;;;;;;;5030705;28;20425;-79
2022/01/27 14:58:17;;;;;;;20.07;12.63;;;;;;;;;;5025681;28;20430;-81
2022/01/27 15:00:43;;;;;;;18.40;13.00;;;;;;;;;;5032217;28;20961;-80
2022/01/27 15:03:09;;;;;;;20.60;12.00;;;;;;;;;;5034083;28;20558;-81
2022/01/27 15:05:35;;;;;;;18.47;12.20;;;;;;;;;;5026008;28;20936;-78
2022/01/27 15:08:02;;;;;;;16.77;10.90;;;;;;;;;;5028606;28;20415;-79
2022/01/27 15:10:28;;;;;;;22.37;11.70;;;;;;;;;;5028801;28;20506;-80
2022/01/27 15:12:54;;;;;;;21.33;11.40;;;;;;;;;;5033480;28;20447;-80
2022/01/27 15:20:55;;;;;;;18.57;11.23;;;;;;;;;;5036833;28;20628;-78
2022/01/27 15:23:21;;;;;;;21.60;13.43;;;;;;;;;;5034134;28;20430;-81
2022/01/27 15:25:50;;;;;;;18.43;11.77;;;;;;;;;;5032047;28;20426;-81
2022/01/27 15:28:17;;;;;;;19.20;12.60;;;;;;;;;;5037762;28;20431;-83
2022/01/27 15:30:43;;;;;;;25.33;13.10;;;;;;;;;;5023781;28;20502;-82
2022/01/27 15:33:11;;;;;;;24.87;13.80;;;;;;;;;;5029358;28;20453;-82
2022/01/27 15:35:38;;;;;;;20.40;11.27;;;;;;;;;;5031510;28;21005;-82
2022/01/27 15:38:04;;;;;;;24.17;12.30;;;;;;;;;;5033944;28;20896;-81
2022/01/27 15:40:32;;;;;;;21.63;12.87;;;;;;;;;;5034024;28;20559;-81
2022/01/27 15:42:59;;;;;;;21.33;13.10;;;;;;;;;;5032762;28;20422;-83